Time;durP1;ratioP1;P1;durP2;ratioP2;P2;SDS_P1;SDS_P2;PMS_P1;PMS_P2;Temp;Humidity;BMP_temperature;BMP_pressure;BME280_temperature;BME280_humidity;BME280_pressure;Samples;Min_cycle;Max_cycle;Signal;HPM_P1;HPM_P2
2021/11/21 00:01:54;;;;;;;22.25;14.35;;;;;;;;;;5034734;28;20083;-82
2021/11/21 00:04:20;;;;;;;28.77;13.93;;;;;;;;;;5066753;28;20040;-84
2021/11/21 00:06:46;;;;;;;28.38;14.25;;;;;;;;;;5048624;28;20059;-82
2021/11/21 00:09:12;;;;;;;23.38;14.32;;;;;;;;;;5049982;28;20490;-79
2021/11/21 00:11:39;;;;;;;23.75;14.57;;;;;;;;;;5051148;28;20140;-76
2021/11/21 00:14:06;;;;;;;23.80;14.18;;;;;;;;;;5067500;28;20036;-78
2021/11/21 00:16:32;;;;;;;31.55;14.45;;;;;;;;;;5034918;28;20457;-77
2021/11/21 00:18:59;;;;;;;30.20;14.73;;;;;;;;;;5067536;28;20092;-77
2021/11/21 00:21:25;;;;;;;25.67;15.18;;;;;;;;;;5068988;28;20181;-77
2021/11/21 00:23:51;;;;;;;33.03;15.23;;;;;;;;;;5068111;28;20044;-77
2021/11/21 00:26:17;;;;;;;25.50;14.95;;;;;;;;;;5051062;28;20489;-79
2021/11/21 00:28:43;;;;;;;27.02;14.00;;;;;;;;;;5067358;28;20052;-78
2021/11/21 00:31:09;;;;;;;29.08;15.02;;;;;;;;;;5067733;28;20048;-78
2021/11/21 00:33:36;;;;;;;28.67;15.57;;;;;;;;;;5034297;28;20055;-77
2021/11/21 00:36:03;;;;;;;26.85;14.43;;;;;;;;;;5050372;28;20590;-85
2021/11/21 00:38:29;;;;;;;27.17;14.93;;;;;;;;;;5051529;28;20127;-82
2021/11/21 00:40:55;;;;;;;24.48;14.45;;;;;;;;;;5034732;28;20096;-79
2021/11/21 00:43:21;;;;;;;27.35;14.93;;;;;;;;;;5066067;28;20048;-78
2021/11/21 00:45:48;;;;;;;21.27;13.45;;;;;;;;;;5066547;28;20127;-78
2021/11/21 00:48:20;;;;;;;19.80;13.65;;;;;;;;;;5067071;28;20089;-78
2021/11/21 00:50:46;;;;;;;21.58;13.32;;;;;;;;;;5052264;28;20128;-78
2021/11/21 00:53:13;;;;;;;23.50;14.50;;;;;;;;;;5080937;28;20056;-81
2021/11/21 00:55:43;;;;;;;22.90;14.10;;;;;;;;;;5070516;28;20480;-86
2021/11/21 00:58:11;;;;;;;24.63;13.02;;;;;;;;;;5038145;28;20047;-77
2021/11/21 01:00:38;;;;;;;24.83;13.80;;;;;;;;;;5053895;28;20435;-78
2021/11/21 01:03:06;;;;;;;22.55;13.27;;;;;;;;;;5053912;28;20051;-84
2021/11/21 01:05:32;;;;;;;22.23;13.75;;;;;;;;;;5070240;28;20059;-81
2021/11/21 01:07:58;;;;;;;24.73;12.85;;;;;;;;;;5071579;28;20041;-77
2021/11/21 01:10:24;;;;;;;20.42;12.30;;;;;;;;;;5051321;28;20522;-78
2021/11/21 01:12:54;;;;;;;28.50;14.05;;;;;;;;;;5069666;28;20037;-79
2021/11/21 01:15:22;;;;;;;22.92;12.35;;;;;;;;;;5068187;28;20045;-78
2021/11/21 01:17:49;;;;;;;20.60;11.57;;;;;;;;;;5069488;28;20032;-78
2021/11/21 01:20:15;;;;;;;19.90;12.23;;;;;;;;;;5067622;28;20129;-78
2021/11/21 01:22:41;;;;;;;23.60;12.23;;;;;;;;;;5070021;28;20598;-77
2021/11/21 01:25:08;;;;;;;20.00;12.25;;;;;;;;;;5053618;28;20036;-78
2021/11/21 01:27:34;;;;;;;18.67;11.07;;;;;;;;;;5071140;28;20037;-77
2021/11/21 01:30:00;;;;;;;20.60;12.10;;;;;;;;;;5069922;28;20045;-77
2021/11/21 01:32:26;;;;;;;21.80;13.25;;;;;;;;;;5053872;28;20192;-83
2021/11/21 01:34:53;;;;;;;20.20;11.93;;;;;;;;;;5070879;28;20376;-79
2021/11/21 01:37:19;;;;;;;20.77;12.13;;;;;;;;;;5103199;28;20048;-83
2021/11/21 01:39:45;;;;;;;20.20;10.85;;;;;;;;;;5053901;28;20059;-78
2021/11/21 01:42:11;;;;;;;19.38;10.45;;;;;;;;;;5069601;28;20048;-78
2021/11/21 01:44:37;;;;;;;19.25;10.80;;;;;;;;;;5069996;28;20045;-81
2021/11/21 01:47:06;;;;;;;19.50;9.85;;;;;;;;;;5053928;28;20045;-78
2021/11/21 01:49:32;;;;;;;14.02;8.15;;;;;;;;;;5082084;28;20048;-81
2021/11/21 01:51:58;;;;;;;12.93;7.95;;;;;;;;;;5054129;28;20044;-79
2021/11/21 01:54:24;;;;;;;15.07;7.40;;;;;;;;;;5070084;28;20438;-77
2021/11/21 01:56:50;;;;;;;11.10;6.72;;;;;;;;;;5036785;28;20055;-78
2021/11/21 01:59:16;;;;;;;13.20;5.95;;;;;;;;;;5063119;28;20514;-77
2021/11/21 02:01:43;;;;;;;12.88;5.97;;;;;;;;;;5062867;28;20048;-78
2021/11/21 02:04:09;;;;;;;14.73;7.18;;;;;;;;;;5094896;28;20135;-77
2021/11/21 02:06:35;;;;;;;14.30;6.78;;;;;;;;;;5063826;28;20036;-77
2021/11/21 02:09:02;;;;;;;9.40;5.72;;;;;;;;;;5082519;28;20506;-78
2021/11/21 02:11:28;;;;;;;12.85;6.15;;;;;;;;;;5102335;28;20045;-78
2021/11/21 02:13:56;;;;;;;13.32;5.72;;;;;;;;;;5095681;28;20534;-78
2021/11/21 02:16:24;;;;;;;11.05;4.00;;;;;;;;;;5077028;28;20140;-77
2021/11/21 02:18:51;;;;;;;12.35;3.55;;;;;;;;;;5101236;28;20053;-78
2021/11/21 02:21:18;;;;;;;11.90;3.72;;;;;;;;;;5094440;28;20113;-77
2021/11/21 02:23:44;;;;;;;11.32;3.28;;;;;;;;;;5075225;28;20096;-77
2021/11/21 02:26:10;;;;;;;10.05;2.33;;;;;;;;;;5097735;28;20127;-77
2021/11/21 02:28:37;;;;;;;14.30;3.30;;;;;;;;;;5093712;28;20056;-78
2021/11/21 02:31:04;;;;;;;11.27;2.92;;;;;;;;;;5063204;28;20052;-77
2021/11/21 02:33:31;;;;;;;15.20;3.03;;;;;;;;;;5091788;28;20049;-77
2021/11/21 02:35:58;;;;;;;10.38;3.03;;;;;;;;;;5092831;28;20044;-84
2021/11/21 02:38:25;;;;;;;10.38;2.90;;;;;;;;;;5060807;28;20045;-77
2021/11/21 02:40:52;;;;;;;14.43;2.85;;;;;;;;;;5094871;28;20604;-77
2021/11/21 02:43:18;;;;;;;10.20;2.97;;;;;;;;;;5082358;28;20049;-77
2021/11/21 02:45:45;;;;;;;10.98;2.80;;;;;;;;;;5061969;28;20041;-77
2021/11/21 02:48:11;;;;;;;16.10;2.72;;;;;;;;;;5045291;28;20088;-77
2021/11/21 02:50:38;;;;;;;8.45;2.70;;;;;;;;;;5079141;28;20201;-78
2021/11/21 02:53:04;;;;;;;16.00;2.55;;;;;;;;;;5060356;28;20048;-77
2021/11/21 02:55:32;;;;;;;14.43;2.53;;;;;;;;;;5045973;28;20048;-76
2021/11/21 02:57:58;;;;;;;10.40;2.15;;;;;;;;;;5046365;28;20091;-76
2021/11/21 03:00:25;;;;;;;6.07;1.92;;;;;;;;;;5100952;28;20131;-76
2021/11/21 03:02:52;;;;;;;11.23;1.95;;;;;;;;;;5057944;28;20060;-76
2021/11/21 03:05:19;;;;;;;9.77;2.08;;;;;;;;;;5088893;28;20056;-77
2021/11/21 03:07:45;;;;;;;14.15;1.85;;;;;;;;;;5096435;28;20088;-76
2021/11/21 03:10:14;;;;;;;15.02;1.90;;;;;;;;;;5096940;28;20045;-77
2021/11/21 03:12:40;;;;;;;14.02;2.35;;;;;;;;;;5079678;28;20051;-77
2021/11/21 03:15:06;;;;;;;11.20;1.92;;;;;;;;;;5082158;28;20044;-79
2021/11/21 03:17:33;;;;;;;10.70;1.70;;;;;;;;;;5092834;28;20041;-76
2021/11/21 03:19:59;;;;;;;11.02;1.77;;;;;;;;;;5100899;28;20399;-77
2021/11/21 03:22:25;;;;;;;10.68;2.25;;;;;;;;;;5090389;28;20048;-77
2021/11/21 03:24:51;;;;;;;15.38;2.65;;;;;;;;;;5089212;28;20043;-77
2021/11/21 03:27:17;;;;;;;13.57;1.80;;;;;;;;;;5093239;28;20040;-76
2021/11/21 03:29:43;;;;;;;7.35;2.05;;;;;;;;;;5096851;28;20066;-76
2021/11/21 03:32:09;;;;;;;10.43;1.65;;;;;;;;;;5100179;28;20045;-76
2021/11/21 03:34:38;;;;;;;12.43;1.85;;;;;;;;;;5076687;28;20052;-77
2021/11/21 03:37:05;;;;;;;13.25;2.10;;;;;;;;;;5077639;28;20048;-77
2021/11/21 03:39:31;;;;;;;10.75;1.95;;;;;;;;;;5095406;28;20044;-76
2021/11/21 03:41:57;;;;;;;17.25;1.95;;;;;;;;;;5087934;28;20055;-77
2021/11/21 03:44:23;;;;;;;17.23;2.00;;;;;;;;;;5062138;28;20048;-76
2021/11/21 03:46:49;;;;;;;16.42;2.92;;;;;;;;;;5067296;28;20506;-77
2021/11/21 03:49:15;;;;;;;12.73;1.70;;;;;;;;;;5063291;28;20119;-77
2021/11/21 03:51:41;;;;;;;13.95;1.60;;;;;;;;;;5065618;28;20518;-76
2021/11/21 03:54:07;;;;;;;16.75;1.70;;;;;;;;;;5067599;28;20541;-77
2021/11/21 03:56:33;;;;;;;15.48;1.75;;;;;;;;;;5077842;28;20053;-77
2021/11/21 03:59:00;;;;;;;14.77;1.75;;;;;;;;;;5061185;28;20495;-76
2021/11/21 04:01:26;;;;;;;17.15;1.83;;;;;;;;;;5091939;28;20497;-76
2021/11/21 04:03:52;;;;;;;15.05;1.75;;;;;;;;;;5073902;28;20507;-76
2021/11/21 04:06:18;;;;;;;12.02;1.65;;;;;;;;;;5092537;28;20040;-77
2021/11/21 04:08:44;;;;;;;13.02;1.92;;;;;;;;;;5091933;28;20044;-78
2021/11/21 04:11:10;;;;;;;14.52;2.20;;;;;;;;;;5095593;28;20045;-77
2021/11/21 04:13:36;;;;;;;16.70;2.03;;;;;;;;;;5076227;28;20049;-77
2021/11/21 04:16:03;;;;;;;13.20;1.80;;;;;;;;;;5094449;28;20370;-76
2021/11/21 04:18:29;;;;;;;13.80;2.03;;;;;;;;;;5076976;28;20040;-77
2021/11/21 04:20:55;;;;;;;10.18;1.70;;;;;;;;;;5091212;28;20043;-76
2021/11/21 04:23:21;;;;;;;22.17;2.00;;;;;;;;;;5055518;28;20056;-76
2021/11/21 04:25:47;;;;;;;16.30;1.83;;;;;;;;;;5096177;28;20036;-76
2021/11/21 04:28:13;;;;;;;17.75;2.47;;;;;;;;;;5102797;28;20106;-76
2021/11/21 04:30:39;;;;;;;15.25;1.95;;;;;;;;;;5078184;28;20502;-76
2021/11/21 04:33:05;;;;;;;13.23;1.58;;;;;;;;;;5076324;28;20546;-76
2021/11/21 04:35:32;;;;;;;15.25;1.98;;;;;;;;;;5085662;28;20103;-76
2021/11/21 04:37:58;;;;;;;17.38;2.22;;;;;;;;;;5079745;28;20045;-78
2021/11/21 04:40:24;;;;;;;18.98;2.15;;;;;;;;;;5093438;28;20434;-78
2021/11/21 04:42:50;;;;;;;18.83;2.90;;;;;;;;;;5089102;28;20514;-76
2021/11/21 04:45:17;;;;;;;20.30;2.85;;;;;;;;;;5094037;28;20052;-78
2021/11/21 04:47:43;;;;;;;15.65;1.83;;;;;;;;;;5063862;28;20045;-76
2021/11/21 04:50:10;;;;;;;16.02;1.83;;;;;;;;;;5105079;28;20475;-76
2021/11/21 04:52:37;;;;;;;18.55;1.92;;;;;;;;;;5102894;28;20487;-76
2021/11/21 04:55:04;;;;;;;23.50;2.60;;;;;;;;;;5101191;28;20048;-76
2021/11/21 04:57:31;;;;;;;25.95;2.42;;;;;;;;;;5098925;28;20080;-76
2021/11/21 04:59:57;;;;;;;20.27;2.28;;;;;;;;;;5088954;28;20479;-76
2021/11/21 05:02:23;;;;;;;14.85;1.70;;;;;;;;;;5102911;28;20041;-75
2021/11/21 05:04:49;;;;;;;16.75;2.30;;;;;;;;;;5100324;28;20076;-76
2021/11/21 05:07:15;;;;;;;21.05;1.85;;;;;;;;;;5084633;28;20099;-75
2021/11/21 05:09:42;;;;;;;17.13;2.28;;;;;;;;;;5096396;28;20091;-76
2021/11/21 05:12:09;;;;;;;23.15;2.35;;;;;;;;;;5100529;28;20098;-79
2021/11/21 05:14:35;;;;;;;16.45;2.03;;;;;;;;;;5051345;28;20045;-76
2021/11/21 05:17:01;;;;;;;19.65;2.03;;;;;;;;;;5048454;28;20052;-76
2021/11/21 05:19:27;;;;;;;12.75;1.60;;;;;;;;;;5058402;28;20057;-76
2021/11/21 05:21:53;;;;;;;17.20;1.67;;;;;;;;;;5059469;28;20131;-78
2021/11/21 05:24:23;;;;;;;16.67;2.22;;;;;;;;;;5065067;28;20040;-77
2021/11/21 05:26:50;;;;;;;15.75;1.63;;;;;;;;;;5078225;28;20115;-76
2021/11/21 05:29:16;;;;;;;14.88;2.03;;;;;;;;;;5070897;28;20080;-83
2021/11/21 05:31:42;;;;;;;16.38;1.58;;;;;;;;;;5078840;28;20139;-76
2021/11/21 05:34:08;;;;;;;15.40;1.90;;;;;;;;;;5071184;28;20040;-76
2021/11/21 05:36:35;;;;;;;15.00;1.77;;;;;;;;;;5070141;28;20053;-76
2021/11/21 05:39:01;;;;;;;14.95;2.05;;;;;;;;;;5069754;28;20392;-76
2021/11/21 05:41:27;;;;;;;18.50;1.90;;;;;;;;;;5068080;28;20048;-81
2021/11/21 05:43:53;;;;;;;12.82;1.52;;;;;;;;;;5054372;28;20047;-78
2021/11/21 05:46:19;;;;;;;18.65;1.88;;;;;;;;;;5070329;28;20072;-76
2021/11/21 05:48:45;;;;;;;13.00;1.92;;;;;;;;;;5070134;28;20479;-81
2021/11/21 05:51:11;;;;;;;21.83;2.58;;;;;;;;;;5049905;28;20052;-76
2021/11/21 05:53:38;;;;;;;23.92;2.67;;;;;;;;;;5078651;28;20063;-80
2021/11/21 05:56:04;;;;;;;14.82;2.88;;;;;;;;;;5070643;28;20049;-76
2021/11/21 05:58:30;;;;;;;20.15;2.47;;;;;;;;;;5054974;28;20048;-76
2021/11/21 06:00:56;;;;;;;13.10;2.15;;;;;;;;;;5067256;28;20042;-80
2021/11/21 06:03:22;;;;;;;16.13;2.10;;;;;;;;;;5071321;28;20062;-76
2021/11/21 06:05:48;;;;;;;15.90;1.98;;;;;;;;;;5069439;28;20467;-76
2021/11/21 06:08:15;;;;;;;12.65;1.98;;;;;;;;;;5053945;28;20132;-76
2021/11/21 06:10:41;;;;;;;15.10;1.83;;;;;;;;;;5068575;28;20043;-76
2021/11/21 06:13:08;;;;;;;23.63;2.15;;;;;;;;;;5071114;28;20047;-76
2021/11/21 06:15:35;;;;;;;10.50;1.80;;;;;;;;;;5078208;28;20473;-86
2021/11/21 06:18:01;;;;;;;19.38;2.50;;;;;;;;;;5068814;28;20044;-76
2021/11/21 06:20:27;;;;;;;17.92;2.00;;;;;;;;;;5069594;28;20407;-76
2021/11/21 06:22:53;;;;;;;16.77;1.67;;;;;;;;;;5051908;28;20407;-75
2021/11/21 06:25:19;;;;;;;15.80;2.35;;;;;;;;;;5068586;28;20075;-77
2021/11/21 06:27:45;;;;;;;23.58;2.38;;;;;;;;;;5051829;28;20037;-76
2021/11/21 06:30:11;;;;;;;13.77;2.05;;;;;;;;;;5070290;28;20040;-76
2021/11/21 06:32:37;;;;;;;17.73;2.47;;;;;;;;;;5068927;28;20476;-76
2021/11/21 06:35:04;;;;;;;16.50;2.38;;;;;;;;;;5070822;28;20048;-76
2021/11/21 06:37:30;;;;;;;10.65;1.90;;;;;;;;;;5095539;28;20041;-76
2021/11/21 06:39:57;;;;;;;20.50;2.08;;;;;;;;;;5066322;28;20377;-79
2021/11/21 06:42:23;;;;;;;13.38;1.52;;;;;;;;;;5079667;28;20490;-75
2021/11/21 06:44:49;;;;;;;13.90;1.70;;;;;;;;;;5098383;28;20076;-76
2021/11/21 06:47:15;;;;;;;15.30;2.53;;;;;;;;;;5079601;28;20055;-75
2021/11/21 06:49:44;;;;;;;16.27;2.22;;;;;;;;;;5053279;28;20056;-76
2021/11/21 06:52:10;;;;;;;12.40;1.98;;;;;;;;;;5096943;28;20044;-76
2021/11/21 06:54:36;;;;;;;17.05;1.90;;;;;;;;;;5094344;28;20057;-76
2021/11/21 06:57:02;;;;;;;11.38;1.65;;;;;;;;;;5036582;28;20048;-76
2021/11/21 06:59:28;;;;;;;10.32;1.90;;;;;;;;;;5096919;28;20387;-76
2021/11/21 07:01:54;;;;;;;10.52;1.80;;;;;;;;;;5091991;28;20049;-76
2021/11/21 07:04:20;;;;;;;13.95;2.28;;;;;;;;;;5080198;28;20091;-76
2021/11/21 07:06:46;;;;;;;14.52;2.28;;;;;;;;;;5051465;28;20048;-77
2021/11/21 07:09:14;;;;;;;15.93;2.97;;;;;;;;;;5070049;28;20570;-76
2021/11/21 07:11:41;;;;;;;10.68;1.98;;;;;;;;;;5066052;28;20041;-76
2021/11/21 07:14:07;;;;;;;19.25;2.78;;;;;;;;;;5069375;28;20048;-77
2021/11/21 07:16:34;;;;;;;14.65;1.75;;;;;;;;;;5068891;28;20140;-75
2021/11/21 07:19:00;;;;;;;17.00;1.95;;;;;;;;;;5090891;28;20450;-76
2021/11/21 07:21:26;;;;;;;19.30;2.28;;;;;;;;;;5067087;28;20055;-78
2021/11/21 07:23:52;;;;;;;17.08;3.10;;;;;;;;;;5097610;28;20102;-76
2021/11/21 07:26:19;;;;;;;7.32;1.92;;;;;;;;;;5051899;28;20064;-76
2021/11/21 07:28:45;;;;;;;20.23;3.17;;;;;;;;;;5080347;28;20037;-76
2021/11/21 07:31:11;;;;;;;11.90;1.58;;;;;;;;;;5077772;28;20510;-76
2021/11/21 07:33:38;;;;;;;9.60;1.60;;;;;;;;;;5074888;28;20496;-76
2021/11/21 07:36:04;;;;;;;11.80;2.05;;;;;;;;;;5052763;28;21585;-77
2021/11/21 07:38:31;;;;;;;10.32;1.58;;;;;;;;;;5088513;28;20049;-76
2021/11/21 07:40:57;;;;;;;14.45;2.38;;;;;;;;;;5050443;28;20059;-75
2021/11/21 07:43:23;;;;;;;15.35;2.30;;;;;;;;;;5068660;28;20106;-76
2021/11/21 07:45:52;;;;;;;17.92;2.03;;;;;;;;;;5062867;28;20046;-76
2021/11/21 07:48:18;;;;;;;11.52;1.85;;;;;;;;;;5062544;28;20052;-75
2021/11/21 07:50:44;;;;;;;17.48;2.38;;;;;;;;;;5058247;28;20388;-74
2021/11/21 07:53:10;;;;;;;8.80;1.75;;;;;;;;;;5057331;28;20045;-75
2021/11/21 07:55:37;;;;;;;22.67;2.50;;;;;;;;;;5057642;28;20400;-75
2021/11/21 07:58:03;;;;;;;13.90;2.30;;;;;;;;;;5093735;28;20082;-75
2021/11/21 08:00:29;;;;;;;8.90;1.63;;;;;;;;;;5089689;28;20131;-75
2021/11/21 08:02:57;;;;;;;13.80;1.58;;;;;;;;;;5096536;28;20060;-74
2021/11/21 08:05:23;;;;;;;14.27;2.15;;;;;;;;;;5073610;28;20055;-77
2021/11/21 08:07:49;;;;;;;16.10;2.72;;;;;;;;;;5066703;28;20051;-76
2021/11/21 08:10:16;;;;;;;14.07;2.10;;;;;;;;;;5069231;28;20048;-78
2021/11/21 08:12:42;;;;;;;16.13;1.98;;;;;;;;;;5052185;28;20166;-75
2021/11/21 08:15:08;;;;;;;19.45;2.40;;;;;;;;;;5068465;28;20502;-76
2021/11/21 08:17:34;;;;;;;12.60;2.03;;;;;;;;;;5067327;28;20079;-76
2021/11/21 08:20:01;;;;;;;17.63;2.25;;;;;;;;;;5052347;28;20040;-77
2021/11/21 08:22:27;;;;;;;16.88;2.15;;;;;;;;;;5052265;28;20053;-82
2021/11/21 08:24:53;;;;;;;14.13;3.08;;;;;;;;;;5066644;28;20048;-78
2021/11/21 08:27:19;;;;;;;13.35;2.55;;;;;;;;;;5067055;28;20044;-77
2021/11/21 08:29:45;;;;;;;11.88;2.50;;;;;;;;;;5064304;28;20040;-77
2021/11/21 08:32:11;;;;;;;19.15;2.25;;;;;;;;;;5065799;28;20120;-77
2021/11/21 08:34:38;;;;;;;14.27;2.50;;;;;;;;;;5091842;28;20053;-78
2021/11/21 08:37:04;;;;;;;11.98;1.98;;;;;;;;;;5067848;28;20048;-77
2021/11/21 08:39:30;;;;;;;16.20;3.25;;;;;;;;;;5049825;28;20049;-77
2021/11/21 08:41:56;;;;;;;19.83;2.47;;;;;;;;;;5047607;28;20417;-77
2021/11/21 08:44:23;;;;;;;16.65;1.85;;;;;;;;;;5084537;28;20055;-77
2021/11/21 08:46:49;;;;;;;13.80;2.30;;;;;;;;;;5051716;28;20052;-76
2021/11/21 08:49:15;;;;;;;13.73;2.65;;;;;;;;;;5051022;28;20033;-77
2021/11/21 08:51:43;;;;;;;14.48;3.00;;;;;;;;;;5066642;28;20053;-77
2021/11/21 08:54:10;;;;;;;15.13;2.30;;;;;;;;;;5063391;28;20045;-78
2021/11/21 08:56:36;;;;;;;15.20;2.22;;;;;;;;;;5051632;28;20044;-76
2021/11/21 08:59:03;;;;;;;13.75;1.77;;;;;;;;;;5057216;28;20044;-78
2021/11/21 09:01:29;;;;;;;12.93;1.70;;;;;;;;;;5070885;28;20048;-77
2021/11/21 09:03:55;;;;;;;9.32;1.83;;;;;;;;;;5067063;28;20071;-78
2021/11/21 09:06:22;;;;;;;23.80;2.85;;;;;;;;;;5062872;28;20055;-78
2021/11/21 09:08:48;;;;;;;16.40;2.83;;;;;;;;;;5074515;28;20045;-85
2021/11/21 09:11:14;;;;;;;13.68;2.00;;;;;;;;;;5067479;28;20057;-82
2021/11/21 09:13:40;;;;;;;13.15;2.47;;;;;;;;;;5061387;28;20422;-81
2021/11/21 09:16:08;;;;;;;14.20;2.45;;;;;;;;;;5076821;28;20423;-80
2021/11/21 09:18:34;;;;;;;13.20;2.25;;;;;;;;;;5065118;28;20105;-82
2021/11/21 09:21:01;;;;;;;9.55;1.92;;;;;;;;;;5068394;28;20045;-80
2021/11/21 09:23:27;;;;;;;12.60;2.55;;;;;;;;;;5050683;28;20051;-79
2021/11/21 09:25:53;;;;;;;15.07;2.22;;;;;;;;;;5080040;28;20060;-80
2021/11/21 09:28:20;;;;;;;10.00;2.13;;;;;;;;;;5081930;28;20437;-85
2021/11/21 09:30:46;;;;;;;10.88;1.95;;;;;;;;;;5052249;28;20409;-85
2021/11/21 09:33:12;;;;;;;9.20;1.73;;;;;;;;;;5059957;28;20059;-85
2021/11/21 09:35:38;;;;;;;13.23;2.72;;;;;;;;;;5036388;28;20052;-84
2021/11/21 09:38:04;;;;;;;11.25;2.00;;;;;;;;;;5070072;28;20076;-86
2021/11/21 09:40:31;;;;;;;10.93;2.53;;;;;;;;;;5071453;28;20129;-86
2021/11/21 09:42:57;;;;;;;13.75;1.67;;;;;;;;;;5062152;28;20049;-86
2021/11/21 09:45:23;;;;;;;7.70;1.92;;;;;;;;;;5076840;28;20090;-90
2021/11/21 09:47:54;;;;;;;8.02;1.90;;;;;;;;;;5065526;28;20041;-86
2021/11/21 09:50:21;;;;;;;10.35;1.75;;;;;;;;;;5069500;28;20056;-87
2021/11/21 09:52:47;;;;;;;11.18;2.15;;;;;;;;;;5067958;28;20128;-87
2021/11/21 09:55:13;;;;;;;10.85;2.08;;;;;;;;;;5069352;28;20052;-80
2021/11/21 09:57:41;;;;;;;13.63;1.70;;;;;;;;;;5063566;28;20624;-79
2021/11/21 10:00:12;;;;;;;11.95;1.77;;;;;;;;;;5069425;28;20048;-80
2021/11/21 10:02:47;;;;;;;6.00;1.23;;;;;;;;;;5063347;28;20419;-79
2021/11/21 10:05:22;;;;;;;10.50;1.90;;;;;;;;;;5074961;28;20056;-78
2021/11/21 10:07:48;;;;;;;12.18;1.70;;;;;;;;;;5068037;28;20384;-81
2021/11/21 10:10:17;;;;;;;6.60;1.60;;;;;;;;;;5069527;28;20047;-82
2021/11/21 10:12:43;;;;;;;15.48;1.95;;;;;;;;;;5067744;28;20044;-81
2021/11/21 10:15:14;;;;;;;11.68;1.77;;;;;;;;;;5051781;28;20044;-81
2021/11/21 10:17:41;;;;;;;13.75;1.65;;;;;;;;;;5068588;28;20131;-81
2021/11/21 10:20:18;;;;;;;11.95;2.13;;;;;;;;;;5053263;28;20428;-81
2021/11/21 10:22:56;;;;;;;9.25;1.75;;;;;;;;;;5067454;28;20064;-83
2021/11/21 10:25:36;;;;;;;13.70;2.03;;;;;;;;;;5081094;28;20084;-84
2021/11/21 10:28:06;;;;;;;9.90;1.58;;;;;;;;;;5057621;28;20071;-82
2021/11/21 10:30:32;;;;;;;12.70;1.65;;;;;;;;;;5081680;28;20114;-82
2021/11/21 10:33:02;;;;;;;8.43;1.40;;;;;;;;;;5074466;28;20136;-80
2021/11/21 10:35:28;;;;;;;8.45;1.20;;;;;;;;;;5068311;28;20047;-81
2021/11/21 10:37:57;;;;;;;9.07;1.48;;;;;;;;;;5067943;28;20052;-80
2021/11/21 10:40:23;;;;;;;8.52;1.45;;;;;;;;;;5065834;28;20044;-77
2021/11/21 10:42:52;;;;;;;11.02;1.67;;;;;;;;;;5041665;28;20052;-80
2021/11/21 10:45:28;;;;;;;10.98;1.20;;;;;;;;;;5062321;28;20052;-79
2021/11/21 10:47:55;;;;;;;8.55;1.40;;;;;;;;;;5069746;28;20406;-85
2021/11/21 10:50:33;;;;;;;6.75;1.30;;;;;;;;;;5068206;28;20056;-81
2021/11/21 10:53:00;;;;;;;6.47;1.55;;;;;;;;;;5067769;28;20060;-79
2021/11/21 10:55:26;;;;;;;13.23;1.50;;;;;;;;;;5065961;28;20105;-82
2021/11/21 10:57:52;;;;;;;9.75;1.23;;;;;;;;;;5052740;28;20080;-83
2021/11/21 11:00:20;;;;;;;11.77;1.42;;;;;;;;;;5059814;28;20098;-84
2021/11/21 11:02:46;;;;;;;6.07;1.10;;;;;;;;;;5087418;28;20126;-78
2021/11/21 11:05:16;;;;;;;9.60;1.52;;;;;;;;;;5061473;28;20041;-86
2021/11/21 11:07:45;;;;;;;16.63;1.58;;;;;;;;;;5060008;28;20424;-85
2021/11/21 11:10:14;;;;;;;15.80;1.60;;;;;;;;;;5060268;28;20041;-82
2021/11/21 11:12:41;;;;;;;13.80;1.52;;;;;;;;;;5063668;28;20044;-82
2021/11/21 11:15:07;;;;;;;9.70;1.45;;;;;;;;;;5064004;28;20044;-81
2021/11/21 11:17:34;;;;;;;12.07;1.20;;;;;;;;;;5066649;28;20052;-83
2021/11/21 11:20:01;;;;;;;10.45;2.00;;;;;;;;;;5047636;28;20036;-84
2021/11/21 11:22:29;;;;;;;13.07;2.17;;;;;;;;;;5051719;28;20044;-88
2021/11/21 11:24:56;;;;;;;10.27;1.60;;;;;;;;;;5066520;28;20041;-84
2021/11/21 11:27:28;;;;;;;10.52;1.63;;;;;;;;;;5068285;28;20503;-86
2021/11/21 11:29:55;;;;;;;6.05;0.98;;;;;;;;;;5100918;28;20383;-80
2021/11/21 11:32:21;;;;;;;10.98;1.63;;;;;;;;;;5069378;28;20087;-86
2021/11/21 11:34:47;;;;;;;9.00;1.50;;;;;;;;;;5076805;28;20045;-87
2021/11/21 11:37:14;;;;;;;9.60;1.50;;;;;;;;;;5058153;28;20492;-85
2021/11/21 11:39:45;;;;;;;5.93;1.52;;;;;;;;;;5075495;28;20467;-90
2021/11/21 11:42:29;;;;;;;11.63;1.85;;;;;;;;;;5093160;28;20053;-91
2021/11/21 11:44:56;;;;;;;10.68;1.40;;;;;;;;;;5062884;28;20041;-83
2021/11/21 11:47:23;;;;;;;10.95;1.67;;;;;;;;;;5080562;28;20048;-82
2021/11/21 11:49:49;;;;;;;8.60;1.58;;;;;;;;;;5091139;28;20043;-82
2021/11/21 11:52:15;;;;;;;10.45;1.70;;;;;;;;;;5094102;28;20044;-81
2021/11/21 11:54:43;;;;;;;8.35;1.40;;;;;;;;;;5058850;28;20515;-85
2021/11/21 11:57:09;;;;;;;9.80;1.30;;;;;;;;;;5048194;28;20503;-79
2021/11/21 11:59:38;;;;;;;7.65;1.55;;;;;;;;;;5092805;28;20040;-82
2021/11/21 12:02:04;;;;;;;5.22;0.90;;;;;;;;;;5066748;28;20055;-83
2021/11/21 12:04:30;;;;;;;7.68;1.52;;;;;;;;;;5070297;28;20052;-80
2021/11/21 12:06:57;;;;;;;9.07;1.10;;;;;;;;;;5057017;28;20044;-80
2021/11/21 12:09:25;;;;;;;15.52;1.38;;;;;;;;;;5092973;28;20056;-84
2021/11/21 12:11:56;;;;;;;10.50;1.02;;;;;;;;;;5049926;28;20072;-85
2021/11/21 12:14:25;;;;;;;8.93;1.25;;;;;;;;;;5062887;28;20463;-86
2021/11/21 12:17:08;;;;;;;9.77;1.42;;;;;;;;;;5060191;28;20464;-86
2021/11/21 12:19:37;;;;;;;6.35;1.00;;;;;;;;;;5056650;28;20147;-86
2021/11/21 12:22:03;;;;;;;6.38;0.75;;;;;;;;;;5044647;28;20041;-85
2021/11/21 12:24:31;;;;;;;4.78;0.60;;;;;;;;;;5055925;28;20124;-76
2021/11/21 12:26:57;;;;;;;1.67;0.52;;;;;;;;;;5093124;28;20048;-77
2021/11/21 12:29:28;;;;;;;5.55;0.70;;;;;;;;;;5071069;28;20049;-84
2021/11/21 12:31:55;;;;;;;5.25;0.70;;;;;;;;;;5062264;28;20033;-82
2021/11/21 12:34:27;;;;;;;13.60;0.95;;;;;;;;;;5073593;28;21861;-81
2021/11/21 12:37:12;;;;;;;6.53;1.65;;;;;;;;;;5044567;28;20036;-81
2021/11/21 12:39:39;;;;;;;6.72;1.10;;;;;;;;;;5066388;28;20048;-80
2021/11/21 12:42:11;;;;;;;8.18;1.17;;;;;;;;;;5080389;28;20033;-81
2021/11/21 12:44:38;;;;;;;5.20;0.90;;;;;;;;;;5078147;28;20067;-76
2021/11/21 12:47:05;;;;;;;9.25;1.10;;;;;;;;;;5044109;28;20044;-81
2021/11/21 12:49:32;;;;;;;9.15;1.33;;;;;;;;;;5070841;28;20076;-78
2021/11/21 12:52:02;;;;;;;7.68;1.10;;;;;;;;;;5054751;28;20127;-79
2021/11/21 12:54:28;;;;;;;7.20;1.23;;;;;;;;;;5069943;28;20044;-78
2021/11/21 12:56:55;;;;;;;10.25;1.42;;;;;;;;;;5070166;28;20076;-79
2021/11/21 12:59:21;;;;;;;8.65;1.45;;;;;;;;;;5084418;28;20060;-79
2021/11/21 13:01:47;;;;;;;8.88;1.35;;;;;;;;;;5101361;28;20659;-80
2021/11/21 13:04:13;;;;;;;11.48;1.63;;;;;;;;;;5101049;28;20135;-84
2021/11/21 13:06:39;;;;;;;7.07;1.17;;;;;;;;;;5055254;28;20083;-83
2021/11/21 13:09:05;;;;;;;8.65;1.52;;;;;;;;;;5057661;28;20101;-82
2021/11/21 13:11:31;;;;;;;6.97;1.55;;;;;;;;;;5049088;28;20045;-82
2021/11/21 13:13:59;;;;;;;8.30;1.52;;;;;;;;;;5052472;28;20079;-82
2021/11/21 13:16:26;;;;;;;13.55;1.92;;;;;;;;;;5058135;28;20523;-81
2021/11/21 13:18:54;;;;;;;11.90;1.27;;;;;;;;;;5064019;28;20053;-83
2021/11/21 13:21:22;;;;;;;9.18;1.55;;;;;;;;;;5067346;28;20136;-81
2021/11/21 13:23:52;;;;;;;12.05;1.83;;;;;;;;;;5050671;28;20083;-83
2021/11/21 13:26:19;;;;;;;12.88;2.15;;;;;;;;;;5076573;28;20270;-85
2021/11/21 13:28:49;;;;;;;9.35;1.73;;;;;;;;;;5067700;28;20374;-82
2021/11/21 13:31:29;;;;;;;11.15;2.25;;;;;;;;;;5053448;28;20076;-84
2021/11/21 13:33:57;;;;;;;13.25;2.40;;;;;;;;;;5061674;28;20051;-82
2021/11/21 13:36:28;;;;;;;13.68;2.80;;;;;;;;;;5065110;28;20044;-82
2021/11/21 13:38:59;;;;;;;16.45;2.22;;;;;;;;;;5067191;28;20037;-83
2021/11/21 13:41:26;;;;;;;11.95;2.03;;;;;;;;;;5084091;28;20383;-80
2021/11/21 13:43:53;;;;;;;13.60;2.05;;;;;;;;;;5085549;28;20059;-81
2021/11/21 13:46:30;;;;;;;21.98;2.38;;;;;;;;;;5066743;28;20464;-80
2021/11/21 13:48:58;;;;;;;20.33;2.33;;;;;;;;;;5068862;28;20076;-82
2021/11/21 13:51:26;;;;;;;15.75;2.45;;;;;;;;;;5081276;28;20397;-81
2021/11/21 13:53:53;;;;;;;15.25;2.15;;;;;;;;;;5069252;28;20055;-80
2021/11/21 13:56:19;;;;;;;15.05;2.33;;;;;;;;;;5050831;28;20445;-80
2021/11/21 13:58:46;;;;;;;12.70;1.85;;;;;;;;;;5066354;28;20037;-80
2021/11/21 14:01:17;;;;;;;10.38;1.90;;;;;;;;;;5049371;28;20052;-79
2021/11/21 14:03:54;;;;;;;16.48;2.47;;;;;;;;;;5051706;28;20103;-80
2021/11/21 14:06:32;;;;;;;13.88;2.13;;;;;;;;;;5069888;28;20040;-82
2021/11/21 14:08:58;;;;;;;13.70;2.60;;;;;;;;;;5087115;28;20502;-79
2021/11/21 14:11:30;;;;;;;19.45;2.30;;;;;;;;;;5050529;28;20043;-78
2021/11/21 14:13:56;;;;;;;16.10;3.35;;;;;;;;;;5051747;28;20054;-77
2021/11/21 14:16:23;;;;;;;27.30;3.45;;;;;;;;;;5067725;28;20084;-77
2021/11/21 14:18:51;;;;;;;15.27;2.50;;;;;;;;;;5082569;28;20057;-77
2021/11/21 14:21:25;;;;;;;18.20;2.75;;;;;;;;;;5065027;28;20040;-77
2021/11/21 14:23:53;;;;;;;19.63;3.35;;;;;;;;;;5048554;28;20057;-79
2021/11/21 14:26:21;;;;;;;16.55;2.67;;;;;;;;;;5063674;28;20044;-77
2021/11/21 14:28:56;;;;;;;15.70;2.45;;;;;;;;;;5067057;28;20079;-75
2021/11/21 14:31:23;;;;;;;21.67;3.10;;;;;;;;;;5057631;28;20511;-77